TAF KHTS
AMD KHTS 270903Z 2709/2806 20003KT P6SM BKN090 FM271300 19004KT P6SM BKN090 FM271900 20006KT P6SM SCT200 FM280000 19005KT P6SM BKN100 FM280300 22007KT P6SM SCT100=
METAR KHTS
WC KHTS
WS KHTS
WV KHTS